createdAt,value
2019-05-10T00:04:43.662Z,8.9
2019-05-10T00:09:43.068Z,8.8
2019-05-10T00:14:42.641Z,8.5
2019-05-10T00:19:42.150Z,8.8
2019-05-10T00:24:41.961Z,8.9
2019-05-10T00:29:41.758Z,9.1
2019-05-10T00:34:41.505Z,8.9
2019-05-10T00:39:41.338Z,8.8
2019-05-10T00:44:41.117Z,9.1
2019-05-10T00:49:40.858Z,8.9
2019-05-10T00:54:40.087Z,9
2019-05-10T00:59:39.295Z,8.8
2019-05-10T01:04:39.005Z,8.2
2019-05-10T01:09:38.689Z,8.1
2019-05-10T01:14:38.152Z,8
2019-05-10T01:19:37.840Z,8.2
2019-05-10T01:24:37.463Z,8.2
2019-05-10T01:29:37.206Z,8.1
2019-05-10T01:34:37.114Z,8.1
2019-05-10T01:39:36.686Z,7.8
2019-05-10T01:44:36.471Z,8
2019-05-10T01:49:36.420Z,8
2019-05-10T01:54:35.692Z,7.8
2019-05-10T01:59:35.103Z,7.8
2019-05-10T02:04:35.179Z,8
2019-05-10T02:09:34.804Z,7.8
2019-05-10T02:14:34.484Z,7.6
2019-05-10T02:19:34.049Z,7.5
2019-05-10T02:24:33.810Z,7.9
2019-05-10T02:29:33.819Z,8
2019-05-10T02:34:33.477Z,8.3
2019-05-10T02:39:33.225Z,8.3
2019-05-10T02:44:33.128Z,8.3
2019-05-10T02:49:32.859Z,8.2
2019-05-10T02:54:32.284Z,8.4
2019-05-10T02:59:31.845Z,7.6
2019-05-10T03:04:31.620Z,7.5
2019-05-10T03:09:31.034Z,7.3
2019-05-10T03:14:30.646Z,7.3
2019-05-10T03:19:30.448Z,7.3
2019-05-10T03:24:29.937Z,7.1
2019-05-10T03:29:29.266Z,7.1
2019-05-10T03:34:29.085Z,7.1
2019-05-10T03:39:28.777Z,7.1
2019-05-10T03:44:28.573Z,7.8
2019-05-10T03:49:29.054Z,8.3
2019-05-10T03:54:28.713Z,8.3
2019-05-10T03:59:28.171Z,8
2019-05-10T04:04:29.433Z,10.1
2019-05-10T04:09:31.538Z,13.8
2019-05-10T04:14:31.517Z,11.5
2019-05-10T04:19:29.969Z,10.2
2019-05-10T04:24:28.925Z,9.9
2019-05-10T04:29:28.352Z,9.6
2019-05-10T04:34:28.395Z,10.5
2019-05-10T04:39:28.352Z,10.6
2019-05-10T04:44:28.181Z,11.2
2019-05-10T04:49:27.519Z,10.6
2019-05-10T04:54:27.274Z,10.6
2019-05-10T04:59:26.868Z,10.2
2019-05-10T05:04:25.785Z,9.1
2019-05-10T05:09:25.533Z,9.3
2019-05-10T05:14:25.218Z,9.3
2019-05-10T05:19:24.924Z,9.5
2019-05-10T05:24:24.655Z,9.4
2019-05-10T05:29:23.918Z,9.1
2019-05-10T05:34:23.802Z,9.3
2019-05-10T05:39:23.782Z,9.5
2019-05-10T05:44:25.975Z,9.4
2019-05-10T05:49:26.662Z,9.4
2019-05-10T05:54:26.298Z,9.4
2019-05-10T05:59:26.438Z,9.6
2019-05-10T06:04:26.745Z,10
2019-05-10T06:09:31.906Z,10.4
2019-05-10T06:14:36.716Z,11.3
2019-05-10T06:19:37.182Z,11.6
2019-05-10T06:24:37.450Z,12.6
2019-05-10T06:29:37.665Z,12.7
2019-05-10T06:34:38.566Z,12.6
2019-05-10T06:39:39.372Z,12.8
2019-05-10T06:44:39.175Z,12.4
2019-05-10T06:49:40.825Z,12.1
2019-05-10T06:54:48.754Z,12.3
2019-05-10T06:59:49.214Z,13.4
2019-05-10T07:04:50.995Z,14.4
2019-05-10T07:10:14.972Z,15.3
2019-05-10T07:15:16.413Z,16.1
2019-05-10T07:20:16.366Z,15.6
2019-05-10T07:25:15.655Z,15.2
2019-05-10T07:30:15.563Z,15.8
2019-05-10T07:35:15.822Z,16.1
2019-05-10T07:40:16.062Z,16
2019-05-10T07:45:18.563Z,16.8
2019-05-10T07:50:24.948Z,17.2
2019-05-10T07:55:28.168Z,17.1
2019-05-10T08:00:28.134Z,15.7
2019-05-10T08:05:29.174Z,15.9
2019-05-10T08:10:29.868Z,16.4
2019-05-10T08:15:30.394Z,16.6
2019-05-10T08:20:46.073Z,17.7
2019-05-10T08:25:55.191Z,17.5
2019-05-10T08:30:58.626Z,17.6
2019-05-10T08:36:04.943Z,17.1
2019-05-10T08:41:02.726Z,15.1
2019-05-10T08:46:11.945Z,14.5
2019-05-10T08:51:12.484Z,15.2
2019-05-10T08:56:13.540Z,14.7
2019-05-10T09:01:29.314Z,14.9
2019-05-10T09:06:35.159Z,14.6
2019-05-10T09:11:34.999Z,14.7
2019-05-10T09:16:43.211Z,15.4
2019-05-10T09:21:56.174Z,16.6
2019-05-10T09:26:57.039Z,15.9
2019-05-10T09:31:56.048Z,15.5
2019-05-10T09:36:55.524Z,15.4
2019-05-10T09:41:55.284Z,15.5
2019-05-10T09:46:55.595Z,15.8
2019-05-10T09:51:55.161Z,15.6
2019-05-10T09:56:57.218Z,15.6
2019-05-10T10:01:57.126Z,15.1
2019-05-10T10:06:57.938Z,15.4
2019-05-10T10:12:02.789Z,16.4
2019-05-10T10:17:03.537Z,17.1
2019-05-10T10:22:05.425Z,16.4
2019-05-10T10:27:11.193Z,17
2019-05-10T10:32:11.065Z,17.5
2019-05-10T10:37:14.523Z,17.1
2019-05-10T10:42:19.739Z,15.2
2019-05-10T10:47:22.791Z,15.2
2019-05-10T10:52:28.774Z,17.3
2019-05-10T10:57:29.068Z,17
2019-05-10T11:02:33.025Z,15.9
2019-05-10T11:07:33.555Z,15
2019-05-10T11:12:36.809Z,14.7
2019-05-10T11:17:36.839Z,15.3
2019-05-10T11:22:41.757Z,15.5
2019-05-10T11:27:53.678Z,16.2
2019-05-10T11:33:00.379Z,15.9
2019-05-10T11:38:01.150Z,17.3
2019-05-10T11:43:01.898Z,17.4
2019-05-10T11:48:02.113Z,16.3
2019-05-10T11:53:01.345Z,16.1
2019-05-10T12:04:53.657Z,16.3
2019-05-10T12:10:02.984Z,16.1
2019-05-10T12:15:20.568Z,15.8
2019-05-10T12:20:38.915Z,15.6
2019-05-10T12:26:15.235Z,15.8
2019-05-10T12:26:15.237Z,16.5
2019-05-10T12:31:53.220Z,16
2019-05-10T12:36:57.403Z,16.1
2019-05-10T12:42:04.536Z,16.4
2019-05-10T12:47:04.957Z,17.1
2019-05-10T12:52:09.038Z,17.7
2019-05-10T12:57:11.843Z,16.4
2019-05-10T13:02:13.031Z,16.7
2019-05-10T13:07:12.908Z,16.3
2019-05-10T13:12:11.938Z,16.2
2019-05-10T13:17:16.243Z,16.5
2019-05-10T13:22:16.226Z,16.5
2019-05-10T13:27:16.193Z,17.1
2019-05-10T13:32:20.408Z,16.2
2019-05-10T13:37:24.551Z,16.9
2019-05-10T13:42:24.522Z,16.9
2019-05-10T13:47:24.312Z,17
2019-05-10T13:52:29.566Z,17.4
2019-05-10T13:57:35.088Z,17.7
2019-05-10T14:02:35.027Z,17.7
2019-05-10T14:07:34.375Z,16.6
2019-05-10T14:12:33.915Z,16.7
2019-05-10T14:17:33.603Z,16.3
2019-05-10T14:22:33.520Z,16.5
2019-05-10T14:27:35.879Z,16.5
2019-05-10T14:32:37.587Z,17.1
2019-05-10T14:37:37.551Z,16.9
2019-05-10T14:42:37.073Z,16.4
2019-05-10T14:47:46.236Z,16.7
2019-05-10T14:52:47.884Z,16.9
2019-05-10T14:57:47.793Z,16.9
2019-05-10T15:02:47.663Z,16.8
2019-05-10T15:07:50.835Z,16.7
2019-05-10T15:12:50.184Z,16.5
2019-05-10T15:17:54.868Z,15.9
2019-05-10T15:23:00.152Z,15.6
2019-05-10T15:28:00.140Z,15.3
2019-05-10T15:33:00.902Z,15.6
2019-05-10T15:38:00.674Z,15.6
2019-05-10T15:43:02.980Z,15.8
2019-05-10T15:48:04.172Z,15.7
2019-05-10T15:53:03.881Z,15.4
2019-05-10T15:58:03.044Z,14.9
2019-05-10T16:03:02.258Z,14.7
2019-05-10T16:08:02.139Z,14.7
2019-05-10T16:13:01.473Z,14.6
2019-05-10T16:18:01.719Z,14.4
2019-05-10T16:23:02.726Z,14.2
2019-05-10T16:28:07.079Z,13.9
2019-05-10T16:33:09.569Z,13.9
2019-05-10T16:38:14.056Z,13.6
2019-05-10T16:43:17.070Z,13.6
2019-05-10T16:48:22.610Z,13.4
2019-05-10T16:53:22.013Z,13
2019-05-10T16:58:22.406Z,12.9
2019-05-10T17:03:22.037Z,12.6
2019-05-10T17:08:21.776Z,12.8
2019-05-10T17:13:21.432Z,12.2
2019-05-10T17:18:23.659Z,12.1
2019-05-10T17:23:23.049Z,11.8
2019-05-10T17:28:22.276Z,11.2
2019-05-10T17:33:21.687Z,11
2019-05-10T17:38:21.061Z,10.6
2019-05-10T17:43:22.587Z,10.5
2019-05-10T17:48:21.847Z,10
2019-05-10T17:53:21.293Z,10
2019-05-10T17:58:20.727Z,9.7
2019-05-10T18:03:20.103Z,9.2
2019-05-10T18:08:19.695Z,9.3
2019-05-10T18:13:19.086Z,9
2019-05-10T18:18:18.529Z,8.8
2019-05-10T18:23:20.988Z,8.6
2019-05-10T18:28:21.979Z,8.7
2019-05-10T18:33:21.552Z,8.3
2019-05-10T18:38:21.033Z,8.2
2019-05-10T18:43:20.706Z,8.2
2019-05-10T18:48:20.326Z,8.1
2019-05-10T18:53:20.027Z,8.1
2019-05-10T18:58:23.167Z,8.2
2019-05-10T19:03:27.816Z,8.2
2019-05-10T19:08:32.558Z,8.1
2019-05-10T19:13:33.941Z,8
2019-05-10T19:18:44.248Z,8
2019-05-10T19:23:43.867Z,7.9
2019-05-10T19:28:43.618Z,7.7
2019-05-10T19:33:43.223Z,7.8
2019-05-10T19:38:42.842Z,7.7
2019-05-10T19:43:42.605Z,7.6
2019-05-10T19:48:42.087Z,7.6
2019-05-10T19:53:43.614Z,7.6
2019-05-10T19:58:42.977Z,7.4
2019-05-10T20:03:42.794Z,7.7
2019-05-10T20:08:42.437Z,7.6
2019-05-10T20:13:42.034Z,7.5
2019-05-10T20:18:41.583Z,7.6
2019-05-10T20:23:41.109Z,7.5
2019-05-10T20:28:40.742Z,7.4
2019-05-10T20:33:40.094Z,7.3
2019-05-10T20:38:39.744Z,7.3
2019-05-10T20:43:39.865Z,7.5
2019-05-10T20:48:39.993Z,7.3
2019-05-10T20:53:39.597Z,7.2
2019-05-10T20:58:38.972Z,7.1
2019-05-10T21:03:38.596Z,7.1
2019-05-10T21:08:38.194Z,6.9
2019-05-10T21:13:37.650Z,6.6
2019-05-10T21:18:37.254Z,6.9
2019-05-10T21:23:37.072Z,6.8
2019-05-10T21:28:36.731Z,6.7
2019-05-10T21:33:36.315Z,6.7
2019-05-10T21:38:36.093Z,6.4
2019-05-10T21:43:35.633Z,6.2
2019-05-10T21:48:35.298Z,6.5
2019-05-10T21:53:35.057Z,6.4
2019-05-10T21:58:34.673Z,6.1
2019-05-10T22:03:34.146Z,6.3
2019-05-10T22:08:48.331Z,6.2
2019-05-10T22:13:46.782Z,6.2
2019-05-10T22:18:46.358Z,6
2019-05-10T22:23:45.995Z,6
2019-05-10T22:28:45.849Z,5.8
2019-05-10T22:33:45.533Z,5.9
2019-05-10T22:38:45.231Z,5.7
2019-05-10T22:43:44.926Z,5.9
2019-05-10T22:48:44.641Z,5.8
2019-05-10T22:53:43.992Z,5.8
2019-05-10T22:58:43.553Z,5.7
2019-05-10T23:03:43.265Z,5.7
2019-05-10T23:08:42.953Z,5.7
2019-05-10T23:13:42.708Z,5.7
2019-05-10T23:18:42.173Z,5.7
2019-05-10T23:23:41.810Z,5.7
2019-05-10T23:28:41.429Z,5.5
2019-05-10T23:33:41.143Z,5.3
2019-05-10T23:38:40.770Z,5.1
2019-05-10T23:43:40.153Z,5.3
2019-05-10T23:48:39.658Z,5.3
2019-05-10T23:53:39.336Z,5.2
2019-05-10T23:58:38.906Z,5.2
